Time;durP1;ratioP1;P1;durP2;ratioP2;P2;SDS_P1;SDS_P2;PMS_P1;PMS_P2;Temp;Humidity;BMP_temperature;BMP_pressure;BME280_temperature;BME280_humidity;BME280_pressure;Samples;Min_cycle;Max_cycle;Signal;HPM_P1;HPM_P2
2021/03/28 00:01:36;;;;;;;13.27;4.90;;;5.00;91.50;;;;;;5069493;28;20245;-68
2021/03/28 00:04:07;;;;;;;17.48;4.60;;;5.00;91.70;;;;;;5071487;28;20075;-68
2021/03/28 00:06:36;;;;;;;14.25;4.90;;;4.90;91.60;;;;;;5072092;28;20035;-69
2021/03/28 00:09:28;;;;;;;19.42;4.68;;;5.00;91.20;;;;;;5072716;28;20035;-68
2021/03/28 00:11:57;;;;;;;25.92;5.63;;;4.90;91.70;;;;;;5072608;28;20028;-67
2021/03/28 00:14:37;;;;;;;15.20;5.47;;;4.90;91.70;;;;;;5073573;28;20064;-68
2021/03/28 00:17:21;;;;;;;19.02;5.25;;;4.90;91.60;;;;;;5069944;28;20486;-69
2021/03/28 00:20:04;;;;;;;19.38;5.00;;;4.90;91.40;;;;;;5072216;28;20035;-68
2021/03/28 00:22:37;;;;;;;19.05;5.10;;;4.80;91.50;;;;;;5071528;28;20437;-69
2021/03/28 00:25:13;;;;;;;18.35;5.10;;;4.80;91.90;;;;;;5071364;28;20028;-69
2021/03/28 00:27:44;;;;;;;18.90;5.20;;;4.80;91.80;;;;;;5069957;28;20100;-69
2021/03/28 00:30:37;;;;;;;14.63;4.23;;;4.80;91.20;;;;;;5072759;28;20028;-68
2021/03/28 00:33:17;;;;;;;16.38;4.90;;;4.80;91.80;;;;;;5069982;28;20025;-68
2021/03/28 00:35:46;;;;;;;19.38;5.10;;;4.70;92.00;;;;;;5071299;28;20034;-68
2021/03/28 00:38:16;;;;;;;17.65;5.32;;;4.80;92.00;;;;;;5071764;28;20032;-68
2021/03/28 00:40:43;;;;;;;20.40;5.77;;;4.80;91.70;;;;;;5069827;28;20027;-68
2021/03/28 00:43:19;;;;;;;17.88;4.82;;;4.80;91.50;;;;;;5072314;28;20040;-69
2021/03/28 00:45:49;;;;;;;18.85;4.18;;;4.80;91.50;;;;;;5071651;28;20025;-69
2021/03/28 00:48:21;;;;;;;20.75;5.10;;;4.70;91.50;;;;;;5069744;28;20020;-68
2021/03/28 00:51:13;;;;;;;18.90;4.70;;;4.70;91.70;;;;;;5069343;28;20028;-69
2021/03/28 00:53:45;;;;;;;21.40;5.55;;;4.80;91.10;;;;;;5071860;28;20431;-69
2021/03/28 00:56:18;;;;;;;26.92;5.85;;;4.80;91.50;;;;;;5069630;28;20032;-68
2021/03/28 00:58:54;;;;;;;17.23;5.47;;;4.80;91.70;;;;;;5071027;28;20082;-69
2021/03/28 01:01:39;;;;;;;23.60;4.70;;;4.70;91.60;;;;;;5071074;28;20539;-69
2021/03/28 01:04:36;;;;;;;26.17;4.78;;;4.70;91.60;;;;;;5068467;28;20036;-68
2021/03/28 01:07:29;;;;;;;22.67;4.50;;;4.70;91.80;;;;;;5069876;28;20409;-68
2021/03/28 01:10:16;;;;;;;17.75;4.50;;;4.70;91.40;;;;;;5072041;28;20123;-68
2021/03/28 01:12:42;;;;;;;21.02;4.82;;;4.70;91.50;;;;;;5052600;28;20497;-68
2021/03/28 01:15:45;;;;;;;22.92;5.18;;;4.70;91.90;;;;;;5070513;28;20107;-69
2021/03/28 01:18:32;;;;;;;16.70;4.15;;;4.70;91.80;;;;;;5053646;28;20503;-69
2021/03/28 01:21:31;;;;;;;22.10;5.18;;;4.70;91.60;;;;;;5070004;28;20032;-68
2021/03/28 01:24:23;;;;;;;16.67;4.55;;;4.70;91.70;;;;;;5020104;28;20047;-69
2021/03/28 01:27:23;;;;;;;17.60;5.28;;;4.70;91.80;;;;;;5070984;28;20037;-69
2021/03/28 01:29:55;;;;;;;23.05;5.03;;;4.70;91.70;;;;;;5055173;28;20036;-69
2021/03/28 01:32:35;;;;;;;23.58;4.80;;;4.70;91.30;;;;;;5070085;28;20037;-69
2021/03/28 01:35:10;;;;;;;17.55;4.78;;;4.70;91.10;;;;;;5068962;28;20486;-68
2021/03/28 01:37:56;;;;;;;20.08;4.72;;;4.70;91.40;;;;;;5066422;28;20059;-70
2021/03/28 01:40:33;;;;;;;19.38;4.93;;;4.70;91.30;;;;;;5070583;28;20032;-68
2021/03/28 01:43:08;;;;;;;24.10;5.80;;;4.70;91.40;;;;;;5069166;28;20536;-69
2021/03/28 01:45:43;;;;;;;20.00;5.75;;;4.70;91.00;;;;;;5071234;28;20066;-70
2021/03/28 01:48:52;;;;;;;17.85;4.53;;;4.70;91.30;;;;;;5071008;28;20393;-69
2021/03/28 01:51:47;;;;;;;22.80;5.43;;;4.60;91.30;;;;;;5068687;28;20398;-69
2021/03/28 01:54:34;;;;;;;15.43;4.18;;;4.60;91.60;;;;;;5067981;28;20017;-69
2021/03/28 01:57:04;;;;;;;19.38;4.85;;;4.70;91.40;;;;;;5068230;28;20040;-69
2021/03/28 01:59:46;;;;;;;17.23;4.50;;;4.60;91.40;;;;;;5069020;28;20021;-70
2021/03/28 02:02:23;;;;;;;17.50;4.60;;;4.60;91.60;;;;;;5069335;28;20035;-69
2021/03/28 02:04:55;;;;;;;19.60;4.65;;;4.70;91.40;;;;;;5068757;28;20032;-69
2021/03/28 02:07:45;;;;;;;22.83;4.35;;;4.70;91.50;;;;;;5069652;28;20032;-69
2021/03/28 02:10:32;;;;;;;15.45;5.18;;;4.70;90.70;;;;;;5068357;28;20025;-69
2021/03/28 02:13:19;;;;;;;18.90;3.97;;;4.60;90.90;;;;;;5067603;28;20017;-68
2021/03/28 02:16:03;;;;;;;17.30;4.15;;;4.70;91.40;;;;;;5070311;28;20385;-68
2021/03/28 02:18:53;;;;;;;20.33;4.32;;;4.60;91.30;;;;;;5069688;28;20081;-68
2021/03/28 02:21:47;;;;;;;19.55;4.30;;;4.60;90.90;;;;;;5069248;28;20043;-68
2021/03/28 02:24:39;;;;;;;15.05;4.00;;;4.60;90.60;;;;;;5069128;28;20024;-69
2021/03/28 02:27:22;;;;;;;30.25;5.03;;;4.50;91.20;;;;;;5067588;28;20652;-68
2021/03/28 02:30:07;;;;;;;20.10;4.63;;;4.50;90.80;;;;;;5068986;28;20032;-70
2021/03/28 02:32:46;;;;;;;17.95;4.63;;;4.60;91.10;;;;;;5069661;28;20055;-69
2021/03/28 02:35:33;;;;;;;14.82;4.60;;;4.60;91.30;;;;;;5068709;28;20036;-69
2021/03/28 02:38:37;;;;;;;16.52;3.60;;;4.60;90.90;;;;;;5067233;28;20038;-69
2021/03/28 02:41:15;;;;;;;14.63;3.78;;;4.60;90.90;;;;;;5050599;28;20090;-70
2021/03/28 02:44:07;;;;;;;16.73;4.95;;;4.50;90.80;;;;;;5066571;28;20489;-69
2021/03/28 02:46:35;;;;;;;19.00;3.65;;;4.60;90.70;;;;;;5067878;28;20649;-70
2021/03/28 02:49:18;;;;;;;20.58;4.05;;;4.60;90.60;;;;;;5069394;28;20033;-69
2021/03/28 02:52:02;;;;;;;17.52;3.35;;;4.60;90.70;;;;;;5067377;28;20406;-68
2021/03/28 02:54:40;;;;;;;18.42;4.43;;;4.60;90.90;;;;;;5068955;28;20025;-69
2021/03/28 02:57:46;;;;;;;15.65;3.97;;;4.60;90.70;;;;;;5067923;28;20096;-68
2021/03/28 03:00:18;;;;;;;16.73;3.65;;;4.50;90.60;;;;;;5067324;28;20036;-69
2021/03/28 03:03:19;;;;;;;19.65;4.28;;;4.50;90.60;;;;;;5068246;28;20467;-68
2021/03/28 03:06:01;;;;;;;24.92;3.88;;;4.50;90.60;;;;;;5067599;28;20103;-69
2021/03/28 03:08:41;;;;;;;23.48;4.18;;;4.60;90.30;;;;;;5068551;28;20024;-69
2021/03/28 03:11:30;;;;;;;17.57;4.47;;;4.60;90.30;;;;;;5068921;28;20406;-69
2021/03/28 03:14:07;;;;;;;16.20;4.57;;;4.60;90.20;;;;;;5068271;28;20044;-68
2021/03/28 03:16:56;;;;;;;13.13;3.63;;;4.60;90.40;;;;;;5067007;28;20036;-69
2021/03/28 03:20:08;;;;;;;17.08;3.78;;;4.60;90.30;;;;;;5066895;28;20119;-69
2021/03/28 03:23:09;;;;;;;15.90;3.20;;;4.50;90.40;;;;;;5068338;28;20045;-70
2021/03/28 03:26:08;;;;;;;19.52;3.83;;;4.50;90.30;;;;;;5069167;28;20036;-69
2021/03/28 03:29:09;;;;;;;15.70;3.53;;;4.60;90.00;;;;;;5068863;28;20029;-69
2021/03/28 03:31:37;;;;;;;20.33;4.43;;;4.60;89.90;;;;;;5050071;28;20028;-69
2021/03/28 03:34:22;;;;;;;12.63;3.60;;;4.60;90.10;;;;;;5068295;28;20039;-69
2021/03/28 03:37:26;;;;;;;12.45;3.60;;;4.60;90.20;;;;;;5091082;22;20057;-74
2021/03/28 03:39:55;;;;;;;22.42;4.93;;;4.60;89.50;;;;;;5068863;28;20060;-73
2021/03/28 03:42:26;;;;;;;15.38;3.20;;;4.60;89.80;;;;;;5069209;28;20030;-73
2021/03/28 03:45:20;;;;;;;16.85;3.60;;;4.60;89.60;;;;;;5068828;28;20036;-73
2021/03/28 03:48:12;;;;;;;16.83;3.63;;;4.60;89.90;;;;;;5048985;28;20033;-75
2021/03/28 03:50:46;;;;;;;13.18;3.85;;;4.60;90.00;;;;;;5049370;28;20147;-75
2021/03/28 03:53:18;;;;;;;14.57;3.70;;;4.60;89.50;;;;;;5047403;28;20064;-76
2021/03/28 03:56:20;;;;;;;14.18;4.30;;;4.60;88.60;;;;;;5047841;28;20036;-74
2021/03/28 03:59:29;;;;;;;15.05;3.63;;;4.60;88.30;;;;;;5008642;28;20107;-74
2021/03/28 04:02:03;;;;;;;14.65;3.78;;;4.60;88.60;;;;;;5047840;28;20136;-74
2021/03/28 04:04:40;;;;;;;13.60;3.50;;;4.60;88.70;;;;;;5048456;28;20036;-74
2021/03/28 04:07:29;;;;;;;16.00;3.70;;;4.60;88.70;;;;;;5047595;28;20017;-73
2021/03/28 04:10:21;;;;;;;18.30;3.88;;;4.70;88.20;;;;;;5049000;28;20041;-74
2021/03/28 04:12:53;;;;;;;15.02;3.40;;;4.60;88.50;;;;;;5005379;28;20434;-75
2021/03/28 04:15:54;;;;;;;15.82;3.95;;;4.70;88.90;;;;;;5049349;28;20067;-75
2021/03/28 04:18:48;;;;;;;15.85;3.80;;;4.70;88.90;;;;;;5052005;28;20432;-75
2021/03/28 04:21:49;;;;;;;17.20;3.67;;;4.70;87.40;;;;;;5035387;28;20033;-76
2021/03/28 04:24:31;;;;;;;12.38;3.58;;;4.70;88.10;;;;;;5052468;28;20032;-73
2021/03/28 04:27:06;;;;;;;14.05;4.05;;;4.70;88.00;;;;;;5050822;28;20025;-76
2021/03/28 04:29:32;;;;;;;18.10;3.83;;;4.70;88.20;;;;;;5049998;28;20017;-76
2021/03/28 04:32:17;;;;;;;18.05;4.45;;;4.70;87.40;;;;;;5052421;28;20630;-73
2021/03/28 04:35:03;;;;;;;16.67;4.35;;;4.70;88.30;;;;;;5052486;28;20033;-73
2021/03/28 04:37:57;;;;;;;16.92;4.05;;;4.70;87.80;;;;;;5052375;28;20033;-73
2021/03/28 04:40:53;;;;;;;21.67;5.13;;;4.70;87.10;;;;;;5052489;28;20033;-74
2021/03/28 04:43:37;;;;;;;12.27;3.85;;;4.70;88.00;;;;;;5052031;28;20039;-73
2021/03/28 04:46:23;;;;;;;19.95;4.07;;;4.70;87.70;;;;;;5050752;28;20397;-74
2021/03/28 04:49:17;;;;;;;17.23;4.28;;;4.70;88.40;;;;;;5050931;28;20482;-72
2021/03/28 04:52:05;;;;;;;17.27;3.80;;;4.70;87.20;;;;;;5051748;28;20112;-73
2021/03/28 04:55:07;;;;;;;17.20;3.60;;;4.80;87.20;;;;;;5022424;28;20033;-73
2021/03/28 04:57:50;;;;;;;15.93;4.80;;;4.80;87.20;;;;;;5051421;28;20405;-73
2021/03/28 05:00:34;;;;;;;12.75;3.97;;;4.80;87.20;;;;;;5051801;28;20086;-73
2021/03/28 05:03:19;;;;;;;25.08;5.20;;;4.80;87.60;;;;;;5050865;28;20025;-73
2021/03/28 05:06:32;;;;;;;12.60;3.53;;;4.80;87.50;;;;;;5050483;28;20033;-74
2021/03/28 05:09:31;;;;;;;10.35;3.75;;;4.80;86.70;;;;;;4989939;28;20031;-73
2021/03/28 05:12:19;;;;;;;11.18;4.28;;;4.80;87.80;;;;;;4990297;28;20037;-73
2021/03/28 05:15:04;;;;;;;12.20;3.67;;;4.90;87.40;;;;;;5040469;28;20494;-73
2021/03/28 05:17:54;;;;;;;11.43;3.30;;;4.80;87.50;;;;;;5051597;28;20514;-73
2021/03/28 05:20:58;;;;;;;15.85;3.92;;;4.90;87.30;;;;;;5054807;28;20410;-75
2021/03/28 05:24:02;;;;;;;21.60;3.42;;;4.90;87.40;;;;;;5050757;28;20032;-72
2021/03/28 05:27:02;;;;;;;13.10;3.63;;;4.90;86.90;;;;;;5050862;28;20066;-75
2021/03/28 05:29:47;;;;;;;13.70;3.20;;;4.90;87.00;;;;;;5049671;28;20099;-73
2021/03/28 05:33:06;;;;;;;16.52;4.43;;;5.00;85.80;;;;;;5051687;28;20035;-75
2021/03/28 05:35:54;;;;;;;20.73;4.18;;;5.00;87.30;;;;;;5012276;28;20181;-73
2021/03/28 05:38:38;;;;;;;17.38;4.13;;;5.00;86.90;;;;;;5049135;28;20036;-75
2021/03/28 05:41:49;;;;;;;14.10;3.80;;;5.00;86.10;;;;;;5051718;28;20087;-75
2021/03/28 05:44:52;;;;;;;15.57;3.40;;;5.00;86.00;;;;;;5052045;28;20098;-75
2021/03/28 05:47:20;;;;;;;16.55;3.30;;;5.10;85.30;;;;;;5050467;28;20029;-75
2021/03/28 05:50:13;;;;;;;13.00;3.40;;;5.10;85.80;;;;;;5050514;28;20036;-74
2021/03/28 05:52:41;;;;;;;12.25;3.72;;;5.10;84.50;;;;;;5047309;28;20032;-73
2021/03/28 05:55:17;;;;;;;13.48;3.47;;;5.20;85.50;;;;;;5048332;28;20029;-75
2021/03/28 05:58:05;;;;;;;16.95;4.47;;;5.20;84.60;;;;;;5047659;28;20068;-76
2021/03/28 06:01:02;;;;;;;13.23;4.38;;;5.20;85.20;;;;;;5048847;28;20394;-73
2021/03/28 06:04:03;;;;;;;11.55;3.72;;;5.30;84.80;;;;;;5050315;28;20028;-74
2021/03/28 06:06:49;;;;;;;10.80;3.58;;;5.30;84.10;;;;;;5049365;28;20020;-76
2021/03/28 06:09:33;;;;;;;10.43;3.45;;;5.30;84.60;;;;;;5048991;28;20028;-75
2021/03/28 06:12:22;;;;;;;12.93;3.50;;;5.40;84.50;;;;;;5050576;28;20111;-75
2021/03/28 06:15:09;;;;;;;11.20;3.17;;;5.40;83.90;;;;;;5049655;28;20747;-75
2021/03/28 06:18:00;;;;;;;15.35;3.88;;;5.40;83.60;;;;;;5050565;28;20044;-74
2021/03/28 06:20:41;;;;;;;14.65;4.00;;;5.40;83.60;;;;;;5053628;28;20047;-75
2021/03/28 06:23:38;;;;;;;10.73;3.15;;;5.50;83.30;;;;;;5050027;28;20120;-75
2021/03/28 06:26:41;;;;;;;15.15;4.45;;;5.50;83.30;;;;;;5044850;28;20045;-73
2021/03/28 06:29:28;;;;;;;15.32;3.40;;;5.50;84.00;;;;;;5051183;28;20029;-77
2021/03/28 06:32:12;;;;;;;13.68;3.45;;;5.60;83.30;;;;;;5050109;28;20029;-75
2021/03/28 06:34:49;;;;;;;11.32;3.72;;;5.60;83.70;;;;;;5039069;28;20147;-76
2021/03/28 06:37:26;;;;;;;18.50;3.55;;;5.70;82.50;;;;;;5048747;28;20060;-74
2021/03/28 06:40:26;;;;;;;11.60;3.88;;;5.70;83.10;;;;;;5048543;28;20024;-74
2021/03/28 06:43:27;;;;;;;16.95;3.85;;;5.70;83.10;;;;;;5050612;28;20021;-75
2021/03/28 06:46:21;;;;;;;13.05;3.72;;;5.70;82.70;;;;;;5014659;28;20084;-75
2021/03/28 06:48:56;;;;;;;12.15;4.03;;;5.70;83.80;;;;;;5042887;28;20053;-74
2021/03/28 06:51:54;;;;;;;18.85;4.38;;;5.70;83.60;;;;;;5049836;28;20037;-74
2021/03/28 06:54:49;;;;;;;14.38;3.97;;;5.70;83.90;;;;;;5049693;28;20068;-74
2021/03/28 06:57:35;;;;;;;10.32;3.58;;;5.80;82.70;;;;;;4994707;28;20523;-74
2021/03/28 07:00:20;;;;;;;16.92;5.03;;;5.80;83.00;;;;;;5049489;28;20116;-74
2021/03/28 07:03:11;;;;;;;21.35;4.10;;;5.70;83.20;;;;;;5047071;28;20429;-75
2021/03/28 07:06:07;;;;;;;14.68;3.88;;;5.80;83.90;;;;;;5046013;28;20040;-72
2021/03/28 07:08:48;;;;;;;15.95;3.92;;;5.80;83.30;;;;;;5048710;28;20027;-77
2021/03/28 07:11:17;;;;;;;11.52;4.45;;;5.90;83.90;;;;;;5038161;28;20386;-76
2021/03/28 07:14:01;;;;;;;16.85;4.68;;;5.90;83.00;;;;;;5047975;28;20036;-72
2021/03/28 07:16:58;;;;;;;11.82;4.43;;;6.00;82.40;;;;;;5048634;28;20029;-75
2021/03/28 07:19:51;;;;;;;12.65;3.88;;;6.00;82.80;;;;;;5049895;28;20033;-75
2021/03/28 07:22:30;;;;;;;14.88;4.30;;;6.00;83.60;;;;;;5048388;28;20112;-74
2021/03/28 07:25:26;;;;;;;14.35;4.57;;;6.10;82.50;;;;;;5046477;28;20033;-74
2021/03/28 07:28:13;;;;;;;21.52;5.88;;;6.10;83.40;;;;;;5049604;28;20043;-73
2021/03/28 07:31:14;;;;;;;17.08;4.95;;;6.20;82.50;;;;;;5049127;28;20031;-73
2021/03/28 07:34:10;;;;;;;15.52;4.72;;;6.20;82.70;;;;;;5050895;28;20337;-73
2021/03/28 07:36:38;;;;;;;9.00;3.60;;;6.30;82.50;;;;;;5046196;28;20087;-73
2021/03/28 07:39:44;;;;;;;15.43;4.15;;;6.30;82.80;;;;;;5048640;28;20021;-72
2021/03/28 07:42:44;;;;;;;15.18;4.38;;;6.30;82.20;;;;;;5049308;28;20060;-71
2021/03/28 07:45:20;;;;;;;13.93;4.07;;;6.30;83.20;;;;;;5048695;28;20037;-72
2021/03/28 07:48:03;;;;;;;18.65;5.05;;;6.40;83.10;;;;;;5044859;28;20296;-74
2021/03/28 07:50:56;;;;;;;11.60;4.03;;;6.40;82.20;;;;;;5048730;28;20051;-73
2021/03/28 07:53:58;;;;;;;18.67;4.47;;;6.50;82.10;;;;;;5052573;28;20050;-75
2021/03/28 07:56:49;;;;;;;12.80;3.95;;;6.50;82.10;;;;;;5053354;28;20032;-73
2021/03/28 07:59:23;;;;;;;15.93;5.05;;;6.70;81.30;;;;;;5052324;28;20089;-73
2021/03/28 08:02:07;;;;;;;15.15;4.78;;;6.80;82.40;;;;;;5053214;28;20126;-72
2021/03/28 08:04:52;;;;;;;14.35;4.10;;;6.80;81.80;;;;;;5041100;28;20040;-71
2021/03/28 08:07:39;;;;;;;16.25;4.20;;;6.80;81.70;;;;;;5049124;28;20025;-73
2021/03/28 08:10:26;;;;;;;11.57;3.50;;;6.90;81.80;;;;;;5039066;28;20491;-73
2021/03/28 08:13:17;;;;;;;15.20;4.13;;;6.90;81.80;;;;;;5050398;28;20025;-74
2021/03/28 08:16:07;;;;;;;17.40;4.72;;;6.90;82.20;;;;;;5051737;28;20025;-74
2021/03/28 08:19:04;;;;;;;13.80;4.32;;;7.00;82.20;;;;;;5051131;28;20151;-74
2021/03/28 08:21:36;;;;;;;15.02;4.35;;;7.00;82.10;;;;;;5050801;28;20155;-73
2021/03/28 08:24:40;;;;;;;16.67;5.10;;;7.10;81.80;;;;;;5049872;28;20509;-74
2021/03/28 08:27:25;;;;;;;15.13;4.05;;;7.10;82.00;;;;;;5048584;28;20036;-76
2021/03/28 08:30:16;;;;;;;14.45;5.00;;;7.20;81.90;;;;;;5046691;28;20401;-73
2021/03/28 08:32:57;;;;;;;10.95;4.88;;;7.10;81.70;;;;;;5047768;28;20585;-73
2021/03/28 08:35:45;;;;;;;12.23;3.97;;;7.20;82.20;;;;;;5047535;28;20493;-74
2021/03/28 08:39:09;;;;;;;14.93;4.80;;;7.20;82.10;;;;;;5050701;28;20040;-75
2021/03/28 08:41:47;;;;;;;12.48;4.20;;;7.40;82.00;;;;;;5026161;28;20045;-73
2021/03/28 08:44:47;;;;;;;14.93;4.82;;;7.40;81.70;;;;;;5049867;28;20036;-74
2021/03/28 08:47:20;;;;;;;11.93;3.85;;;7.40;81.10;;;;;;5050295;28;20037;-73
2021/03/28 08:49:58;;;;;;;15.50;4.85;;;7.60;81.70;;;;;;5050046;28;20029;-75
2021/03/28 08:52:56;;;;;;;16.73;5.15;;;7.60;81.80;;;;;;5020362;28;20036;-74
2021/03/28 08:56:00;;;;;;;10.32;3.67;;;7.80;81.90;;;;;;5050135;28;20138;-75
2021/03/28 08:59:19;;;;;;;14.02;4.30;;;7.80;81.80;;;;;;5051828;28;20021;-74
2021/03/28 09:02:01;;;;;;;15.63;3.88;;;8.00;81.90;;;;;;4986029;28;20054;-74
2021/03/28 09:04:52;;;;;;;13.27;3.70;;;8.00;81.80;;;;;;5051383;28;20021;-74
2021/03/28 09:07:35;;;;;;;16.23;5.33;;;8.20;81.40;;;;;;5050315;28;20044;-74
2021/03/28 09:10:26;;;;;;;10.35;3.65;;;8.20;81.30;;;;;;5050790;28;20612;-74
2021/03/28 09:13:32;;;;;;;17.30;4.15;;;8.40;80.40;;;;;;5052091;28;20397;-74
2021/03/28 09:16:28;;;;;;;13.02;4.15;;;8.60;80.60;;;;;;5051744;28;20044;-74
2021/03/28 09:19:05;;;;;;;13.80;4.00;;;8.70;79.50;;;;;;5049473;28;20103;-74
2021/03/28 09:21:46;;;;;;;10.02;3.17;;;8.70;79.80;;;;;;5051943;28;20032;-73
2021/03/28 09:24:24;;;;;;;11.60;4.13;;;8.90;79.40;;;;;;5050982;28;20035;-74
2021/03/28 09:27:21;;;;;;;9.00;3.38;;;8.80;79.90;;;;;;5052019;28;20134;-74
2021/03/28 09:30:14;;;;;;;14.55;3.42;;;8.90;79.40;;;;;;5050070;28;20024;-74
2021/03/28 09:33:06;;;;;;;15.38;4.20;;;8.80;79.30;;;;;;5052603;28;20521;-74
2021/03/28 09:35:35;;;;;;;13.57;3.15;;;8.80;79.30;;;;;;5060537;22;20087;31
2021/03/28 09:38:19;;;;;;;11.93;3.83;;;8.80;79.70;;;;;;4987330;28;20046;-68
2021/03/28 09:41:04;;;;;;;15.00;3.40;;;8.90;79.80;;;;;;4990038;28;20101;-69
2021/03/28 09:43:41;;;;;;;10.02;3.40;;;9.00;78.90;;;;;;4991760;28;20081;-68
2021/03/28 09:46:36;;;;;;;11.82;3.33;;;9.10;79.20;;;;;;4997118;28;20160;-69
2021/03/28 09:49:30;;;;;;;12.32;3.30;;;9.20;77.90;;;;;;5005466;28;20495;-69
2021/03/28 09:52:23;;;;;;;10.18;3.28;;;9.40;77.40;;;;;;5011861;28;20096;-69
2021/03/28 09:55:27;;;;;;;11.98;3.20;;;9.60;78.30;;;;;;5010012;28;20022;-69
2021/03/28 09:58:34;;;;;;;13.50;2.85;;;9.90;74.40;;;;;;5008632;28;20030;-69
2021/03/28 10:01:14;;;;;;;7.70;3.20;;;10.00;75.00;;;;;;5010728;28;20030;-69
2021/03/28 10:03:54;;;;;;;9.82;3.20;;;10.10;74.60;;;;;;5020849;28;20392;-69
2021/03/28 10:06:22;;;;;;;12.40;3.45;;;10.10;75.60;;;;;;5009131;28;20109;-69
2021/03/28 10:09:01;;;;;;;8.05;2.45;;;10.00;75.70;;;;;;5014827;28;20041;-68
2021/03/28 10:11:53;;;;;;;8.15;3.40;;;10.00;75.80;;;;;;5024922;28;20026;-69
2021/03/28 10:14:37;;;;;;;12.68;3.67;;;10.20;74.90;;;;;;5006882;28;20077;-70
2021/03/28 10:17:39;;;;;;;9.65;3.58;;;10.20;74.80;;;;;;5011306;28;20115;-70
2021/03/28 10:20:23;;;;;;;;;;;10.20;74.40;;;;;;5010676;28;20034;-70
2021/03/28 10:23:09;;;;;;;7.60;2.65;;;10.10;75.00;;;;;;5011029;28;19910;-70
2021/03/28 10:25:45;;;;;;;8.05;2.78;;;10.30;73.40;;;;;;5010635;28;20403;-70
2021/03/28 10:28:48;;;;;;;11.15;3.63;;;10.30;74.40;;;;;;5010711;28;20517;-70
2021/03/28 10:31:38;;;;;;;10.43;3.03;;;10.50;73.20;;;;;;5010229;28;20041;-69
2021/03/28 10:34:48;;;;;;;11.35;4.05;;;10.40;73.20;;;;;;5009918;28;20233;-69
2021/03/28 10:37:25;;;;;;;11.07;3.67;;;10.70;72.00;;;;;;5009729;28;20036;-69
2021/03/28 10:40:14;;;;;;;11.10;3.20;;;10.70;72.90;;;;;;5010816;28;20034;-71
2021/03/28 10:43:01;;;;;;;8.70;2.88;;;10.70;73.20;;;;;;5008958;28;20025;-69
2021/03/28 10:45:52;;;;;;;6.88;3.08;;;10.80;72.50;;;;;;5010239;28;20132;-69
2021/03/28 10:48:50;;;;;;;11.65;3.47;;;10.80;72.80;;;;;;5009772;28;20468;-69
2021/03/28 10:51:43;;;;;;;10.30;3.00;;;10.70;74.10;;;;;;5009721;28;20029;-69
2021/03/28 10:54:36;;;;;;;9.35;2.78;;;10.90;72.40;;;;;;5010575;28;20034;-69
2021/03/28 10:57:05;;;;;;;11.68;3.28;;;10.90;73.70;;;;;;5008769;28;20377;-69
2021/03/28 11:00:02;;;;;;;8.00;2.63;;;10.90;72.00;;;;;;5010145;28;20024;-69
2021/03/28 11:03:06;;;;;;;9.88;3.35;;;10.90;71.90;;;;;;5010208;28;20566;-68
2021/03/28 11:05:40;;;;;;;12.73;3.70;;;10.90;72.30;;;;;;5012057;28;20038;-69
2021/03/28 11:08:23;;;;;;;8.10;2.75;;;10.80;72.80;;;;;;5010086;28;20060;-69
2021/03/28 11:11:14;;;;;;;10.75;2.80;;;10.70;73.00;;;;;;5009360;28;20021;-69
2021/03/28 11:13:57;;;;;;;8.50;2.57;;;10.80;72.50;;;;;;5009101;28;20045;-69
2021/03/28 11:17:02;;;;;;;9.43;2.60;;;10.70;72.90;;;;;;5010934;28;20049;-69
2021/03/28 11:20:01;;;;;;;11.05;3.22;;;10.60;73.20;;;;;;4987037;28;20038;-69
2021/03/28 11:22:41;;;;;;;11.75;3.35;;;10.60;72.90;;;;;;4988230;28;20026;-69
2021/03/28 11:25:30;;;;;;;10.70;2.78;;;10.70;73.10;;;;;;5003460;28;20084;-69
2021/03/28 11:28:33;;;;;;;8.95;2.97;;;10.80;72.60;;;;;;5009466;28;20430;-70
2021/03/28 11:31:25;;;;;;;12.60;3.13;;;10.70;73.60;;;;;;5010247;28;20122;-69
2021/03/28 11:34:15;;;;;;;13.45;4.05;;;10.70;72.60;;;;;;5023539;28;20041;-69
2021/03/28 11:37:01;;;;;;;11.33;2.77;;;10.70;73.40;;;;;;5008999;28;20029;-70
2021/03/28 11:39:35;;;;;;;9.02;3.15;;;10.70;74.00;;;;;;5009741;28;20038;-69
2021/03/28 11:42:14;;;;;;;10.30;3.47;;;10.80;73.40;;;;;;5009434;28;20038;-70
2021/03/28 11:45:01;;;;;;;10.70;2.80;;;10.80;73.60;;;;;;5008376;28;20052;-69
2021/03/28 11:47:57;;;;;;;10.55;3.20;;;10.80;73.60;;;;;;4998240;28;20034;-70
2021/03/28 11:50:38;;;;;;;14.10;3.38;;;11.00;73.30;;;;;;5013354;28;20117;-69
2021/03/28 11:53:20;;;;;;;12.18;3.20;;;11.10;72.40;;;;;;5007376;28;20434;-69
2021/03/28 11:55:48;;;;;;;11.70;3.08;;;11.10;72.30;;;;;;5009573;28;20692;-71
2021/03/28 11:58:18;;;;;;;10.27;2.80;;;11.10;72.70;;;;;;5023791;28;20629;-69
2021/03/28 12:00:46;;;;;;;13.63;3.10;;;11.20;72.20;;;;;;5011842;28;20030;-69
2021/03/28 12:03:23;;;;;;;12.57;3.35;;;11.20;72.80;;;;;;5009230;28;20030;-69
2021/03/28 12:06:02;;;;;;;12.02;2.88;;;11.30;72.90;;;;;;5008773;28;20041;-69
2021/03/28 12:08:50;;;;;;;8.20;2.53;;;11.20;72.80;;;;;;5007677;28;20048;-69
2021/03/28 12:11:35;;;;;;;10.63;3.20;;;11.20;72.70;;;;;;5009313;28;20036;-69
2021/03/28 12:14:12;;;;;;;11.93;3.25;;;11.20;73.20;;;;;;5024584;28;20034;-69
2021/03/28 12:17:09;;;;;;;10.77;3.45;;;11.20;73.10;;;;;;5008947;28;20087;-69
2021/03/28 12:20:05;;;;;;;8.85;2.58;;;11.20;73.40;;;;;;5007849;28;20034;-69
2021/03/28 12:22:42;;;;;;;12.90;3.47;;;11.10;73.70;;;;;;5010334;28;20034;-70
2021/03/28 12:25:14;;;;;;;16.27;3.00;;;11.10;73.70;;;;;;5009677;28;20057;-69
2021/03/28 12:27:49;;;;;;;13.70;3.00;;;10.90;74.50;;;;;;5009344;28;20026;-69
2021/03/28 12:30:27;;;;;;;10.05;3.05;;;10.90;75.10;;;;;;5008192;28;20120;-68
2021/03/28 12:33:09;;;;;;;12.07;2.88;;;11.00;75.10;;;;;;5008078;28;20100;-69
2021/03/28 12:35:56;;;;;;;9.32;2.88;;;10.90;75.00;;;;;;5007837;28;20037;-68
2021/03/28 12:38:28;;;;;;;11.30;2.47;;;10.90;75.40;;;;;;5012311;28;20041;-68
2021/03/28 12:41:18;;;;;;;11.27;2.78;;;10.80;75.60;;;;;;5012463;28;20034;-68
2021/03/28 12:44:08;;;;;;;9.30;2.63;;;10.80;75.90;;;;;;5012318;28;20025;-68
2021/03/28 12:46:49;;;;;;;15.57;2.88;;;10.80;76.80;;;;;;5014838;28;20037;-68
2021/03/28 12:49:38;;;;;;;9.70;3.13;;;10.80;76.80;;;;;;5015120;28;20088;-69
2021/03/28 12:52:13;;;;;;;9.85;2.90;;;10.80;77.20;;;;;;5007025;28;20038;-68
2021/03/28 12:54:51;;;;;;;10.10;2.65;;;10.60;78.30;;;;;;5013925;28;20176;-70
2021/03/28 12:57:38;;;;;;;12.35;3.55;;;10.80;77.70;;;;;;5011474;28;20034;-69
2021/03/28 13:00:16;;;;;;;12.68;3.60;;;10.80;78.80;;;;;;5008576;28;21006;-69
2021/03/28 13:02:43;;;;;;;11.48;2.83;;;10.70;79.60;;;;;;5010669;28;20034;-68
2021/03/28 13:05:31;;;;;;;11.02;3.05;;;10.60;80.30;;;;;;5011907;28;20044;-67
2021/03/28 13:08:18;;;;;;;11.85;3.40;;;10.50;81.50;;;;;;5012103;28;20029;-80
2021/03/28 13:10:45;;;;;;;15.27;3.40;;;10.40;81.90;;;;;;5011420;28;20084;-78
2021/03/28 13:13:14;;;;;;;10.95;3.42;;;10.40;82.50;;;;;;5023210;28;20208;-68
2021/03/28 13:15:57;;;;;;;13.60;3.50;;;10.50;82.30;;;;;;5008663;28;20371;-67
2021/03/28 13:18:41;;;;;;;11.75;3.05;;;10.50;83.00;;;;;;5011173;28;20435;-68
2021/03/28 13:21:12;;;;;;;8.25;3.10;;;10.40;83.90;;;;;;5010405;28;20032;-67
2021/03/28 13:23:40;;;;;;;11.93;3.53;;;10.40;84.50;;;;;;5011834;28;20030;-67
2021/03/28 13:26:25;;;;;;;10.98;3.42;;;10.30;84.80;;;;;;5007741;28;20030;-67
2021/03/28 13:29:00;;;;;;;11.38;4.10;;;10.40;84.90;;;;;;5011352;28;20653;-67
2021/03/28 13:31:45;;;;;;;7.47;2.97;;;10.40;85.60;;;;;;5010045;28;20105;-67
2021/03/28 13:34:30;;;;;;;8.70;3.55;;;10.40;85.20;;;;;;5010570;28;20049;-67
2021/03/28 13:37:02;;;;;;;8.43;3.70;;;10.40;85.90;;;;;;5010686;28;20034;-68
2021/03/28 13:39:29;;;;;;;10.85;3.22;;;10.40;86.70;;;;;;5011102;28;20045;-67
2021/03/28 13:41:58;;;;;;;11.35;3.38;;;10.30;86.40;;;;;;5010683;28;20100;-68
2021/03/28 13:44:28;;;;;;;8.77;3.33;;;10.30;87.00;;;;;;5012098;28;20026;-68
2021/03/28 13:47:04;;;;;;;12.80;4.65;;;10.30;87.10;;;;;;5010193;28;20041;-68
2021/03/28 13:49:48;;;;;;;11.93;3.88;;;10.20;87.60;;;;;;5026849;28;20030;-67
2021/03/28 13:52:28;;;;;;;11.05;3.50;;;10.30;87.80;;;;;;5011949;28;21139;-67
2021/03/28 13:55:08;;;;;;;14.15;3.95;;;10.30;88.60;;;;;;5009721;28;20037;-68
2021/03/28 13:57:37;;;;;;;9.35;3.70;;;10.20;88.40;;;;;;5007670;28;20034;-68
2021/03/28 14:00:08;;;;;;;6.60;3.45;;;10.30;88.60;;;;;;5008680;28;20084;-68
2021/03/28 14:02:40;;;;;;;10.27;3.17;;;10.30;88.40;;;;;;5008799;28;20105;-68
2021/03/28 14:05:08;;;;;;;8.80;3.88;;;10.40;88.40;;;;;;5010328;28;20487;-68
2021/03/28 14:07:44;;;;;;;10.63;3.80;;;10.40;88.80;;;;;;5007542;28;20510;-68
2021/03/28 14:10:13;;;;;;;16.55;4.25;;;10.30;88.60;;;;;;5010245;28;20030;-69
2021/03/28 14:13:05;;;;;;;8.02;3.28;;;10.30;88.80;;;;;;5012362;28;20034;-68
2021/03/28 14:15:40;;;;;;;9.90;3.40;;;10.30;89.70;;;;;;5008088;28;20104;-68
2021/03/28 14:18:13;;;;;;;11.10;4.15;;;10.20;89.60;;;;;;5007713;28;20136;-68
2021/03/28 14:20:46;;;;;;;9.68;4.20;;;10.30;89.80;;;;;;5024771;28;20034;-67